Time;durP1;ratioP1;P1;durP2;ratioP2;P2;SDS_P1;SDS_P2;PMS_P1;PMS_P2;Temp;Humidity;BMP_temperature;BMP_pressure;BME280_temperature;BME280_humidity;BME280_pressure;Samples;Min_cycle;Max_cycle;Signal;HPM_P1;HPM_P2
2024/02/17 00:00:13;;;;;;;29.80;19.43;;;11.50;99.90;;;;;;5089289;28;20461;-83
2024/02/17 00:02:40;;;;;;;30.57;20.00;;;11.50;99.90;;;;;;5097494;28;20581;-82
2024/02/17 00:05:08;;;;;;;27.60;20.27;;;11.50;99.90;;;;;;5096825;28;20465;-83
2024/02/17 00:07:35;;;;;;;28.80;21.33;;;11.40;99.90;;;;;;5099155;28;20994;-83
2024/02/17 00:10:03;;;;;;;26.80;18.97;;;11.40;99.90;;;;;;5099766;28;20889;-83
2024/02/17 00:12:30;;;;;;;24.93;18.20;;;11.40;99.90;;;;;;5091125;28;20475;-82
2024/02/17 00:14:57;;;;;;;24.93;18.93;;;11.30;99.90;;;;;;5085743;28;20451;-81
2024/02/17 00:17:25;;;;;;;24.63;18.27;;;11.40;99.90;;;;;;5110392;28;20468;-82
2024/02/17 00:19:52;;;;;;;25.10;17.30;;;11.30;99.90;;;;;;5102804;28;20447;-82
2024/02/17 00:22:19;;;;;;;24.47;19.00;;;11.40;99.90;;;;;;5104562;28;20489;-80
2024/02/17 00:24:45;;;;;;;26.43;18.73;;;11.40;99.90;;;;;;5114112;28;20453;-82
2024/02/17 00:27:12;;;;;;;24.10;18.13;;;11.30;99.90;;;;;;5097365;28;20557;-85
2024/02/17 00:29:39;;;;;;;24.90;18.50;;;11.40;99.90;;;;;;5105618;28;20532;-80
2024/02/17 00:32:07;;;;;;;28.33;18.57;;;11.40;99.90;;;;;;5107052;28;20535;-82
2024/02/17 00:34:35;;;;;;;23.23;16.87;;;11.40;99.90;;;;;;5109165;28;20526;-83
2024/02/17 00:37:02;;;;;;;25.03;19.23;;;11.40;99.90;;;;;;5108646;28;20449;-82
2024/02/17 00:39:29;;;;;;;23.93;18.33;;;11.40;99.90;;;;;;5111753;28;20510;-83
2024/02/17 00:41:56;;;;;;;26.00;19.73;;;11.40;99.90;;;;;;5106219;28;20486;-81
2024/02/17 00:44:24;;;;;;;25.70;19.37;;;11.30;99.90;;;;;;5105324;28;20444;-82
2024/02/17 00:46:51;;;;;;;24.10;19.97;;;11.30;99.90;;;;;;5103888;28;20452;-80
2024/02/17 00:49:17;;;;;;;26.30;20.50;;;11.30;99.90;;;;;;5100118;28;20959;-82
2024/02/17 00:51:45;;;;;;;28.77;19.93;;;11.30;99.90;;;;;;5109772;28;20564;-82
2024/02/17 00:54:12;;;;;;;29.80;22.33;;;11.40;99.90;;;;;;5106596;28;20561;-83
2024/02/17 00:56:42;;;;;;;31.77;22.30;;;11.40;99.90;;;;;;5107384;28;21062;-82
2024/02/17 00:59:12;;;;;;;27.70;20.77;;;11.40;99.90;;;;;;5106669;28;20529;-82
2024/02/17 01:01:39;;;;;;;31.57;20.90;;;11.40;99.90;;;;;;5108489;28;20494;-83
2024/02/17 01:04:05;;;;;;;31.23;21.13;;;11.40;99.90;;;;;;5103092;28;20456;-83
2024/02/17 01:06:32;;;;;;;31.53;21.20;;;11.30;99.90;;;;;;5104115;28;20545;-85
2024/02/17 01:09:00;;;;;;;35.40;22.67;;;11.30;99.90;;;;;;5105189;28;20534;-82
2024/02/17 01:11:27;;;;;;;38.63;22.77;;;11.30;99.90;;;;;;5107575;28;20499;-82
2024/02/17 01:13:57;;;;;;;26.30;19.63;;;11.30;99.90;;;;;;5110585;28;20448;-82
2024/02/17 01:16:23;;;;;;;39.07;22.60;;;11.30;99.90;;;;;;5098501;28;20455;-80
2024/02/17 01:18:50;;;;;;;35.97;22.57;;;11.00;99.90;;;;;;5083971;28;20505;-85
2024/02/17 01:21:18;;;;;;;36.73;23.30;;;11.00;99.90;;;;;;5089602;28;20507;-81
2024/02/17 01:23:44;;;;;;;30.73;21.50;;;11.00;99.90;;;;;;5092146;28;20486;-82
2024/02/17 01:26:12;;;;;;;31.80;21.63;;;11.00;99.90;;;;;;5095002;28;20459;-83
2024/02/17 01:28:38;;;;;;;32.53;22.37;;;11.00;99.90;;;;;;5081167;28;20540;-82
2024/02/17 01:31:05;;;;;;;31.37;18.93;;;11.00;99.90;;;;;;5095280;28;20562;-82
2024/02/17 01:33:32;;;;;;;32.87;19.37;;;11.10;99.90;;;;;;5097213;28;20455;-81
2024/02/17 01:35:59;;;;;;;28.60;19.83;;;11.10;99.90;;;;;;5097190;28;20453;-82
2024/02/17 01:38:27;;;;;;;29.77;19.70;;;11.10;99.90;;;;;;5097008;28;20479;-82
2024/02/17 01:40:55;;;;;;;33.17;21.47;;;11.10;99.90;;;;;;5089307;28;20575;-82
2024/02/17 01:43:23;;;;;;;29.67;18.90;;;11.10;99.90;;;;;;5077613;28;20526;-82
2024/02/17 01:45:50;;;;;;;28.50;20.90;;;11.10;99.90;;;;;;5077438;28;20519;-82
2024/02/17 01:48:17;;;;;;;26.77;18.27;;;11.10;99.90;;;;;;5087677;28;20462;-83
2024/02/17 01:50:45;;;;;;;29.97;17.87;;;11.10;99.90;;;;;;5078704;28;20546;-82
2024/02/17 01:53:12;;;;;;;28.20;18.07;;;11.10;99.90;;;;;;5077414;28;20881;-82
2024/02/17 01:55:40;;;;;;;28.77;19.07;;;11.00;99.90;;;;;;5078214;28;20535;-80
2024/02/17 01:58:07;;;;;;;28.73;19.50;;;11.00;99.90;;;;;;5078491;28;20489;-82
2024/02/17 02:00:37;;;;;;;30.80;18.10;;;11.00;99.90;;;;;;5083821;28;20455;-83
2024/02/17 02:03:05;;;;;;;29.00;19.63;;;11.00;99.90;;;;;;5099724;28;20497;-84
2024/02/17 02:05:34;;;;;;;29.90;20.67;;;11.00;99.90;;;;;;5095245;28;20530;-82
2024/02/17 02:08:04;;;;;;;23.57;16.83;;;10.90;99.90;;;;;;5096599;28;20450;-82
2024/02/17 02:10:31;;;;;;;22.27;15.53;;;10.90;99.90;;;;;;5082344;28;20460;-81
2024/02/17 02:12:58;;;;;;;29.40;19.70;;;10.90;99.90;;;;;;5075660;28;20539;-81
2024/02/17 02:15:24;;;;;;;29.47;18.90;;;10.70;99.90;;;;;;5086870;28;20481;-81
2024/02/17 02:17:53;;;;;;;26.80;16.97;;;10.70;99.90;;;;;;5095665;28;20522;-78
2024/02/17 02:20:21;;;;;;;29.20;16.73;;;10.70;99.90;;;;;;5091615;28;20471;-81
2024/02/17 02:22:48;;;;;;;25.00;18.80;;;10.70;99.90;;;;;;5074955;28;20487;-81
2024/02/17 02:25:25;;;;;;;28.40;18.10;;;10.70;99.90;;;;;;5074567;28;21019;-80
2024/02/17 02:27:53;;;;;;;21.97;16.67;;;10.60;99.90;;;;;;5075253;28;20448;-79
2024/02/17 02:30:20;;;;;;;28.50;17.40;;;10.60;99.90;;;;;;5078202;28;21005;-80
2024/02/17 02:32:47;;;;;;;27.87;17.47;;;10.50;99.90;;;;;;5094778;28;20534;-82
2024/02/17 02:35:14;;;;;;;26.53;17.03;;;10.60;99.90;;;;;;5091778;28;20907;-81
2024/02/17 02:37:41;;;;;;;29.93;16.20;;;10.60;99.90;;;;;;5074575;28;20495;-83
2024/02/17 02:40:08;;;;;;;25.70;16.70;;;10.70;99.90;;;;;;5073923;28;20490;-82
2024/02/17 02:42:35;;;;;;;27.50;17.03;;;10.60;99.90;;;;;;5073769;28;20596;-83
2024/02/17 02:45:05;;;;;;;28.53;17.50;;;10.50;99.90;;;;;;5092715;28;20472;-81
2024/02/17 02:47:32;;;;;;;28.33;17.10;;;10.60;99.90;;;;;;5101053;28;20458;-81
2024/02/17 02:50:00;;;;;;;26.63;16.30;;;10.50;99.90;;;;;;5101135;28;20466;-83
2024/02/17 02:52:27;;;;;;;23.93;16.57;;;10.50;99.90;;;;;;5093957;28;20474;-81
2024/02/17 02:54:54;;;;;;;28.17;17.07;;;10.40;99.90;;;;;;5099018;28;20477;-81
2024/02/17 02:57:20;;;;;;;22.93;15.20;;;10.40;99.90;;;;;;5091991;28;20975;-82
2024/02/17 02:59:47;;;;;;;26.03;17.03;;;10.60;99.90;;;;;;5080342;28;20709;-83
2024/02/17 03:02:15;;;;;;;23.10;16.40;;;10.60;99.90;;;;;;5099235;28;20528;-82
2024/02/17 03:04:43;;;;;;;22.23;15.03;;;10.70;99.90;;;;;;5094295;28;20458;-83
2024/02/17 03:07:09;;;;;;;28.13;16.30;;;10.70;99.90;;;;;;5089116;28;20453;-82
2024/02/17 03:09:36;;;;;;;28.33;17.93;;;10.60;99.90;;;;;;5099377;28;20481;-83
2024/02/17 03:12:04;;;;;;;27.90;17.17;;;10.60;99.90;;;;;;5091956;28;20557;-79
2024/02/17 03:14:33;;;;;;;31.10;17.07;;;10.60;99.90;;;;;;5093196;28;20458;-81
2024/02/17 03:17:00;;;;;;;30.10;16.77;;;10.60;99.90;;;;;;5081344;28;20513;-80
2024/02/17 03:19:28;;;;;;;23.90;15.67;;;10.60;99.90;;;;;;5079147;28;20455;-79
2024/02/17 03:21:55;;;;;;;36.73;19.33;;;10.60;99.90;;;;;;5078647;28;20522;-81
2024/02/17 03:24:22;;;;;;;26.70;17.10;;;10.60;99.90;;;;;;5078706;28;20542;-82
2024/02/17 03:26:50;;;;;;;23.23;16.03;;;10.60;99.90;;;;;;5092962;28;20468;-82
2024/02/17 03:29:17;;;;;;;24.80;16.40;;;10.60;99.90;;;;;;5098067;28;20541;-82
2024/02/17 03:31:44;;;;;;;27.50;17.63;;;10.60;99.90;;;;;;5096428;28;20951;-81
2024/02/17 03:34:11;;;;;;;29.07;18.60;;;10.70;99.90;;;;;;5097585;28;20461;-83
2024/02/17 03:36:39;;;;;;;32.60;18.73;;;10.70;99.90;;;;;;5096485;28;20852;-81
2024/02/17 03:39:08;;;;;;;28.97;17.37;;;10.60;99.90;;;;;;5096586;28;20554;-81
2024/02/17 03:41:35;;;;;;;27.27;17.77;;;10.70;99.90;;;;;;5092775;28;20474;-81
2024/02/17 03:44:03;;;;;;;29.73;18.87;;;10.70;99.90;;;;;;5082042;28;20486;-81
2024/02/17 03:46:30;;;;;;;31.10;19.00;;;10.70;99.90;;;;;;5098362;28;20946;-83
2024/02/17 03:48:56;;;;;;;31.20;20.10;;;10.60;99.90;;;;;;5098318;28;20461;-83
2024/02/17 03:51:24;;;;;;;30.20;20.03;;;10.70;99.90;;;;;;5098668;28;20534;-83
2024/02/17 03:53:52;;;;;;;28.67;18.70;;;10.60;99.90;;;;;;5095972;28;20460;-80
2024/02/17 03:56:20;;;;;;;30.67;18.00;;;10.70;99.90;;;;;;5089066;28;20477;-84
2024/02/17 03:58:47;;;;;;;32.13;18.53;;;10.60;99.90;;;;;;5097914;28;20866;-81
2024/02/17 04:01:14;;;;;;;23.50;17.63;;;10.70;99.90;;;;;;5097303;28;20493;-82
2024/02/17 04:03:41;;;;;;;27.70;18.87;;;10.80;99.90;;;;;;5097354;28;20544;-81
2024/02/17 04:06:08;;;;;;;26.50;18.10;;;10.80;99.90;;;;;;5096488;28;20438;-83
2024/02/17 04:08:35;;;;;;;32.10;19.37;;;10.80;99.90;;;;;;5097331;28;20459;-83
2024/02/17 04:11:07;;;;;;;27.80;18.37;;;10.80;99.90;;;;;;5100140;28;20919;-81
2024/02/17 04:13:37;;;;;;;26.13;18.37;;;10.80;99.90;;;;;;5102521;28;20970;-82
2024/02/17 04:16:04;;;;;;;32.27;20.70;;;10.80;99.90;;;;;;5083387;28;20471;-82
2024/02/17 04:18:31;;;;;;;25.53;17.97;;;10.80;99.90;;;;;;5079978;28;20506;-83
2024/02/17 04:20:57;;;;;;;25.90;18.57;;;10.90;99.90;;;;;;5083010;28;20502;-82
2024/02/17 04:23:24;;;;;;;25.47;16.70;;;10.90;99.90;;;;;;5088928;28;20510;-83
2024/02/17 04:25:51;;;;;;;26.57;17.87;;;10.90;99.90;;;;;;5103504;28;20948;-79
2024/02/17 04:28:19;;;;;;;31.00;19.70;;;10.90;99.90;;;;;;5092538;28;20468;-80
2024/02/17 04:30:46;;;;;;;25.30;18.33;;;10.90;99.90;;;;;;5097922;28;20502;-81
2024/02/17 04:33:13;;;;;;;26.03;17.90;;;10.90;99.90;;;;;;5097661;28;20452;-82
2024/02/17 04:35:40;;;;;;;28.33;18.53;;;10.90;99.90;;;;;;5097105;28;20539;-81
2024/02/17 04:38:07;;;;;;;28.53;19.17;;;10.90;99.90;;;;;;5097202;28;20476;-83
2024/02/17 04:40:36;;;;;;;33.73;18.37;;;10.90;99.90;;;;;;5095870;28;20460;-83
2024/02/17 04:43:03;;;;;;;26.50;17.03;;;10.90;99.90;;;;;;5098556;28;20526;-80
2024/02/17 04:45:31;;;;;;;31.10;20.10;;;10.90;99.90;;;;;;5098075;28;20481;-82
2024/02/17 04:47:58;;;;;;;25.07;18.03;;;10.90;99.90;;;;;;5098240;28;20451;-83
2024/02/17 04:50:25;;;;;;;26.60;18.10;;;10.90;99.90;;;;;;5090742;28;20450;-83
2024/02/17 04:52:52;;;;;;;25.77;18.63;;;11.00;99.90;;;;;;5098578;28;20450;-83
2024/02/17 04:55:19;;;;;;;25.87;18.10;;;10.90;99.90;;;;;;5107408;28;20466;-83
2024/02/17 04:57:46;;;;;;;28.93;18.90;;;10.90;99.90;;;;;;5094650;28;20451;-81
2024/02/17 05:00:13;;;;;;;30.70;20.00;;;10.80;99.90;;;;;;5097361;28;20455;-83
2024/02/17 05:02:42;;;;;;;31.83;22.70;;;10.80;99.90;;;;;;5090142;28;20582;-82
2024/02/17 05:05:09;;;;;;;27.40;20.87;;;10.70;99.90;;;;;;5087536;28;20466;-82
2024/02/17 05:07:35;;;;;;;31.67;21.30;;;10.80;99.90;;;;;;5095238;28;20537;-81
2024/02/17 05:10:03;;;;;;;29.40;18.73;;;10.70;99.90;;;;;;5095331;28;20464;-81
2024/02/17 05:12:30;;;;;;;24.33;18.47;;;10.80;99.90;;;;;;5086770;28;20600;-81
2024/02/17 05:14:57;;;;;;;30.10;21.00;;;10.80;99.90;;;;;;5089322;28;20450;-84
2024/02/17 05:17:23;;;;;;;27.47;19.37;;;10.80;99.90;;;;;;5095645;28;20456;-82
2024/02/17 05:19:52;;;;;;;26.23;19.20;;;10.80;99.90;;;;;;5096405;28;20539;-81
2024/02/17 05:22:18;;;;;;;25.77;19.10;;;10.70;99.90;;;;;;5084131;28;20469;-83
2024/02/17 05:24:45;;;;;;;26.87;20.20;;;10.70;99.90;;;;;;5077327;28;20848;-82
2024/02/17 05:27:12;;;;;;;32.57;20.63;;;10.80;99.90;;;;;;5074989;28;20447;-82
2024/02/17 05:29:39;;;;;;;30.17;18.20;;;10.80;99.90;;;;;;5091854;28;20455;-80
2024/02/17 05:32:07;;;;;;;31.37;20.17;;;10.70;99.90;;;;;;5095635;28;20485;-81
2024/02/17 05:34:34;;;;;;;31.70;20.50;;;10.70;99.90;;;;;;5100551;28;21083;-81
2024/02/17 05:37:03;;;;;;;26.17;19.63;;;10.70;99.90;;;;;;5089789;28;20467;-83
2024/02/17 05:39:31;;;;;;;29.80;18.80;;;10.60;99.90;;;;;;5083833;28;20496;-80
2024/02/17 05:41:58;;;;;;;33.80;21.53;;;10.60;99.90;;;;;;5082314;28;20468;-82
2024/02/17 05:44:27;;;;;;;31.30;21.70;;;10.60;99.90;;;;;;5083751;28;20598;-79
2024/02/17 05:46:54;;;;;;;35.73;21.97;;;10.60;99.90;;;;;;5099324;28;20549;-82
2024/02/17 05:49:21;;;;;;;27.10;19.80;;;10.70;99.90;;;;;;5102328;28;20858;-82
2024/02/17 05:51:49;;;;;;;27.10;21.23;;;10.70;99.90;;;;;;5100746;28;20502;-82
2024/02/17 05:54:17;;;;;;;32.80;19.43;;;10.70;99.90;;;;;;5102988;28;20488;-82
2024/02/17 05:56:44;;;;;;;31.03;19.30;;;10.70;99.90;;;;;;5097922;28;20486;-82
2024/02/17 05:59:11;;;;;;;34.97;21.97;;;10.60;99.90;;;;;;5095906;28;21161;-81
2024/02/17 06:01:41;;;;;;;28.83;17.87;;;10.60;99.90;;;;;;5098534;28;20498;-83
2024/02/17 06:04:08;;;;;;;30.43;19.53;;;10.60;99.90;;;;;;5087981;28;20480;-81
2024/02/17 06:06:35;;;;;;;29.10;19.13;;;10.70;99.90;;;;;;5106843;28;20468;-83
2024/02/17 06:09:07;;;;;;;30.87;20.60;;;10.70;99.90;;;;;;5086461;28;20465;-82
2024/02/17 06:11:35;;;;;;;28.27;19.90;;;10.70;99.90;;;;;;5105290;28;20470;-82
2024/02/17 06:14:02;;;;;;;27.17;20.33;;;10.80;99.90;;;;;;5102992;28;20447;-81
2024/02/17 06:16:31;;;;;;;30.07;21.23;;;10.80;99.90;;;;;;5103310;28;20458;-81
2024/02/17 06:21:42;;;;;;;32.87;22.00;;;10.90;99.90;;;;;;5100132;28;20475;-81
2024/02/17 06:24:09;;;;;;;32.67;21.80;;;10.90;99.90;;;;;;5090145;28;21048;-81
2024/02/17 06:26:37;;;;;;;31.33;20.97;;;10.90;99.90;;;;;;5107187;28;20838;-80
2024/02/17 06:29:05;;;;;;;28.50;21.17;;;11.00;99.90;;;;;;5108442;28;20543;-82
2024/02/17 06:31:32;;;;;;;34.73;20.77;;;10.90;99.90;;;;;;5102260;28;20486;-81
2024/02/17 06:33:59;;;;;;;32.60;21.40;;;11.00;99.90;;;;;;5088547;28;20448;-81
2024/02/17 06:36:26;;;;;;;29.20;21.07;;;10.90;99.90;;;;;;5093317;28;20517;-80
2024/02/17 06:38:53;;;;;;;31.97;19.20;;;10.90;99.90;;;;;;5108645;28;20549;-81
2024/02/17 06:41:20;;;;;;;35.40;24.00;;;10.90;99.90;;;;;;5100634;28;20496;-80
2024/02/17 06:43:50;;;;;;;30.00;21.10;;;10.90;99.90;;;;;;5101672;28;20952;-83
2024/02/17 06:46:17;;;;;;;34.03;21.50;;;10.90;99.90;;;;;;5095415;28;20463;-80
2024/02/17 06:48:44;;;;;;;27.70;19.97;;;10.90;99.90;;;;;;5096903;28;20440;-81
2024/02/17 06:51:11;;;;;;;28.77;20.97;;;10.90;99.90;;;;;;5100952;28;20562;-81
2024/02/17 06:53:38;;;;;;;26.20;20.43;;;10.90;99.90;;;;;;5097156;28;20474;-80
2024/02/17 06:56:06;;;;;;;25.27;18.33;;;10.90;99.90;;;;;;5099222;28;20484;-82
2024/02/17 06:58:32;;;;;;;29.50;18.60;;;11.00;99.90;;;;;;5096334;28;20904;-82
2024/02/17 07:01:02;;;;;;;27.73;19.80;;;10.90;99.90;;;;;;5095682;28;20562;-81
2024/02/17 07:03:29;;;;;;;35.20;19.40;;;11.00;99.90;;;;;;5100563;28;20476;-82
2024/02/17 07:05:56;;;;;;;25.83;17.80;;;11.00;99.90;;;;;;5096344;28;20467;-82
2024/02/17 07:08:23;;;;;;;34.50;24.47;;;11.00;99.90;;;;;;5096327;28;20461;-81
2024/02/17 07:10:50;;;;;;;30.87;20.60;;;11.00;99.90;;;;;;5099342;28;20523;-82
2024/02/17 07:13:17;;;;;;;25.30;18.27;;;11.10;99.90;;;;;;5095640;28;20853;-81
2024/02/17 07:15:45;;;;;;;31.23;27.10;;;11.10;99.90;;;;;;5111126;28;20457;-81
2024/02/17 07:18:14;;;;;;;34.07;24.97;;;11.10;99.90;;;;;;5112204;28;20453;-80
2024/02/17 07:20:41;;;;;;;26.63;20.30;;;11.10;99.90;;;;;;5102431;28;20510;-80
2024/02/17 07:23:08;;;;;;;31.07;21.43;;;11.10;99.90;;;;;;5111470;28;20478;-82
2024/02/17 07:25:35;;;;;;;23.43;18.23;;;11.10;99.90;;;;;;5114364;28;20448;-82
2024/02/17 07:28:02;;;;;;;31.37;20.80;;;11.10;99.90;;;;;;5110838;28;20450;-82
2024/02/17 07:30:31;;;;;;;30.50;20.47;;;11.20;99.90;;;;;;5097901;28;20557;-81
2024/02/17 07:32:57;;;;;;;28.63;20.57;;;11.10;99.90;;;;;;5097820;28;20510;-80
2024/02/17 07:35:26;;;;;;;31.23;19.90;;;11.20;99.90;;;;;;5098756;28;20447;-81
2024/02/17 07:37:53;;;;;;;35.20;21.80;;;11.20;99.90;;;;;;5101094;28;20546;-81
2024/02/17 07:40:19;;;;;;;27.83;20.40;;;11.10;99.90;;;;;;5095353;28;20450;-82
2024/02/17 07:42:47;;;;;;;26.23;17.57;;;11.10;99.90;;;;;;5100149;28;20483;-81
2024/02/17 07:45:14;;;;;;;24.60;18.10;;;11.10;99.90;;;;;;5096134;28;20554;-84
2024/02/17 07:47:41;;;;;;;27.90;19.10;;;11.10;99.90;;;;;;5097523;28;20512;-81
2024/02/17 07:50:10;;;;;;;30.10;19.77;;;11.20;99.90;;;;;;5097994;28;20515;-81
2024/02/17 07:52:39;;;;;;;35.33;20.53;;;11.10;99.90;;;;;;5102230;28;20557;-82
2024/02/17 07:55:06;;;;;;;29.87;20.10;;;11.20;99.90;;;;;;5101118;28;20897;-80
2024/02/17 07:57:33;;;;;;;30.70;21.77;;;11.20;99.90;;;;;;5105771;28;20529;-80
2024/02/17 07:59:59;;;;;;;24.23;19.10;;;11.30;99.90;;;;;;5100403;28;20553;-83
2024/02/17 08:02:26;;;;;;;27.90;18.77;;;11.20;99.90;;;;;;5097451;28;20555;-82
2024/02/17 08:04:55;;;;;;;35.40;21.57;;;11.30;99.90;;;;;;5103691;28;20487;-79
2024/02/17 08:07:21;;;;;;;24.40;19.17;;;11.40;99.90;;;;;;5101081;28;20481;-81
2024/02/17 08:09:50;;;;;;;24.17;17.53;;;11.40;99.90;;;;;;5108343;28;20507;-81
2024/02/17 08:12:17;;;;;;;22.23;17.63;;;11.40;99.90;;;;;;5108827;28;20878;-80
2024/02/17 08:14:44;;;;;;;27.27;19.30;;;11.40;99.90;;;;;;5109629;28;20458;-79
2024/02/17 08:17:10;;;;;;;28.17;17.70;;;11.40;99.90;;;;;;5100208;28;20461;-82
2024/02/17 08:19:38;;;;;;;28.33;19.30;;;11.40;99.90;;;;;;5109619;28;20460;-80
2024/02/17 08:22:05;;;;;;;29.33;20.40;;;11.50;99.90;;;;;;5092789;28;20545;-79
2024/02/17 08:24:32;;;;;;;35.77;21.43;;;11.50;99.90;;;;;;5094259;28;21064;-79
2024/02/17 08:27:00;;;;;;;29.03;19.60;;;11.40;99.90;;;;;;5090976;28;20443;-80
2024/02/17 08:29:27;;;;;;;25.83;17.83;;;11.50;99.90;;;;;;5101344;28;20543;-79
2024/02/17 08:31:54;;;;;;;32.30;19.43;;;11.60;99.90;;;;;;5105523;28;20492;-81
2024/02/17 08:34:21;;;;;;;27.57;20.67;;;11.70;99.90;;;;;;5096768;28;20437;-81
2024/02/17 08:36:48;;;;;;;33.93;22.00;;;11.70;99.90;;;;;;5107407;28;20597;-80
2024/02/17 08:39:15;;;;;;;30.47;20.87;;;11.80;99.90;;;;;;5104192;28;20527;-79
2024/02/17 08:41:42;;;;;;;29.73;22.47;;;11.80;99.90;;;;;;5099168;28;20531;-78
2024/02/17 08:44:10;;;;;;;28.63;20.77;;;11.80;99.90;;;;;;5088617;28;20558;-80
2024/02/17 08:46:41;;;;;;;34.87;23.23;;;11.90;99.90;;;;;;5091220;28;20476;-79
2024/02/17 08:49:07;;;;;;;30.10;20.77;;;11.90;99.90;;;;;;5090768;28;20455;-80
2024/02/17 08:51:34;;;;;;;27.37;20.10;;;12.00;99.90;;;;;;5094666;28;20498;-77
2024/02/17 08:54:01;;;;;;;27.47;21.33;;;12.20;99.90;;;;;;5092653;28;20439;-80
2024/02/17 08:56:28;;;;;;;39.83;21.23;;;12.20;99.90;;;;;;5095068;28;20482;-79
2024/02/17 08:58:55;;;;;;;28.27;21.00;;;12.30;99.90;;;;;;5097461;28;20450;-81
2024/02/17 09:01:23;;;;;;;29.13;19.90;;;12.20;99.90;;;;;;5097117;28;20470;-78
2024/02/17 09:03:50;;;;;;;27.43;18.90;;;12.30;99.90;;;;;;5095267;28;21043;-79
2024/02/17 09:06:18;;;;;;;32.33;23.30;;;12.40;99.90;;;;;;5083361;28;20438;-77
2024/02/17 09:08:44;;;;;;;33.60;24.87;;;12.30;99.90;;;;;;5085776;28;20450;-80
2024/02/17 09:11:11;;;;;;;47.13;31.00;;;12.30;99.90;;;;;;5103301;28;20555;-80
2024/02/17 09:13:38;;;;;;;39.57;27.40;;;12.30;99.90;;;;;;5092418;28;20517;-78
2024/02/17 09:16:05;;;;;;;44.80;28.30;;;12.30;99.90;;;;;;5090623;28;20464;-80
2024/02/17 09:18:34;;;;;;;37.47;27.50;;;12.10;99.90;;;;;;5088301;28;20562;-80
2024/02/17 09:21:01;;;;;;;40.53;26.77;;;12.10;99.90;;;;;;5088650;28;21061;-79
2024/02/17 09:23:28;;;;;;;38.07;26.40;;;12.10;99.90;;;;;;5091175;28;20447;-80
2024/02/17 09:25:55;;;;;;;41.80;27.63;;;11.90;99.90;;;;;;5091866;28;20465;-77
2024/02/17 09:28:21;;;;;;;39.07;25.13;;;11.90;99.90;;;;;;5091188;28;20458;-79
2024/02/17 09:30:48;;;;;;;35.70;26.00;;;11.80;99.90;;;;;;5090540;28;20551;-78
2024/02/17 09:33:15;;;;;;;43.60;28.10;;;11.80;99.90;;;;;;5100619;28;20448;-78
2024/02/17 09:35:43;;;;;;;40.43;27.17;;;11.90;99.90;;;;;;5100239;28;20516;-79
2024/02/17 09:38:10;;;;;;;40.80;26.87;;;11.90;99.90;;;;;;5099745;28;20550;-79
2024/02/17 09:40:37;;;;;;;39.23;26.60;;;11.90;99.90;;;;;;5090077;28;20446;-79
2024/02/17 09:43:04;;;;;;;36.90;25.77;;;11.80;99.90;;;;;;5096680;28;21094;-80
2024/02/17 09:45:31;;;;;;;39.90;24.97;;;11.90;99.90;;;;;;5095071;28;20956;-79
2024/02/17 09:48:00;;;;;;;40.70;28.70;;;11.90;99.90;;;;;;5093783;28;20447;-79
2024/02/17 09:50:29;;;;;;;39.63;25.57;;;11.80;99.90;;;;;;5081887;28;20928;-78
2024/02/17 09:52:58;;;;;;;43.47;28.47;;;11.80;99.90;;;;;;5085496;28;20448;-79
2024/02/17 09:55:25;;;;;;;44.03;29.80;;;11.80;99.90;;;;;;5081292;28;21012;-80
2024/02/17 09:57:52;;;;;;;43.67;29.97;;;11.70;99.90;;;;;;5100155;28;20865;-78
2024/02/17 10:00:20;;;;;;;45.30;27.03;;;11.80;99.90;;;;;;5097419;28;20457;-81
2024/02/17 10:02:48;;;;;;;44.70;31.10;;;11.70;99.90;;;;;;5104394;28;20521;-78
2024/02/17 10:05:16;;;;;;;40.27;28.40;;;11.80;99.90;;;;;;5104188;28;20551;-78
2024/02/17 10:07:50;;;;;;;37.63;28.63;;;11.80;99.90;;;;;;5105969;28;20454;-80
2024/02/17 10:10:20;;;;;;;45.20;28.10;;;11.90;99.90;;;;;;5097325;28;20538;-80
2024/02/17 10:12:49;;;;;;;46.53;30.87;;;12.10;99.90;;;;;;5097300;28;20486;-80
2024/02/17 10:15:16;;;;;;;43.73;30.43;;;12.20;99.90;;;;;;5100153;28;20522;-79
2024/02/17 10:17:43;;;;;;;47.27;31.60;;;12.30;99.90;;;;;;5096904;28;20444;-80
2024/02/17 10:20:10;;;;;;;48.83;29.77;;;12.40;99.90;;;;;;5110808;28;20950;-81
2024/02/17 10:22:37;;;;;;;45.93;32.87;;;12.50;99.90;;;;;;5107031;28;20475;-79
2024/02/17 10:25:05;;;;;;;54.10;34.17;;;12.70;99.90;;;;;;5104953;28;20485;-79
2024/02/17 10:27:34;;;;;;;43.90;29.87;;;12.50;99.90;;;;;;5109875;28;20475;-80
2024/02/17 10:30:08;;;;;;;50.53;32.70;;;12.70;99.90;;;;;;5110451;28;20536;-80
2024/02/17 10:32:34;;;;;;;55.30;36.63;;;12.70;99.90;;;;;;5114060;28;20974;-81
2024/02/17 10:35:03;;;;;;;46.87;33.80;;;12.70;99.90;;;;;;5104767;28;20440;-81
2024/02/17 10:37:31;;;;;;;49.50;37.03;;;12.80;99.90;;;;;;5112962;28;20484;-78
2024/02/17 10:40:00;;;;;;;49.77;34.87;;;12.60;99.90;;;;;;5113934;28;20536;-80
2024/02/17 10:42:27;;;;;;;51.70;33.77;;;12.80;99.90;;;;;;5112911;28;20470;-79
2024/02/17 10:44:55;;;;;;;54.33;34.47;;;12.80;99.90;;;;;;5112357;28;20578;-79
2024/02/17 10:47:27;;;;;;;45.50;32.10;;;12.60;99.90;;;;;;5110671;28;20529;-80
2024/02/17 10:50:00;;;;;;;46.97;32.00;;;12.80;99.90;;;;;;5109216;28;20981;-78
2024/02/17 10:52:34;;;;;;;52.80;33.87;;;12.80;99.90;;;;;;5107517;28;20528;-79
2024/02/17 10:55:07;;;;;;;57.50;37.33;;;12.80;99.90;;;;;;5107165;28;20671;-81
2024/02/17 10:57:40;;;;;;;58.20;37.60;;;12.80;99.90;;;;;;5107460;28;20445;-80
2024/02/17 11:00:11;;;;;;;50.57;37.00;;;12.70;99.90;;;;;;5106027;28;20443;-81
2024/02/17 11:02:38;;;;;;;49.93;34.63;;;12.80;99.90;;;;;;5115506;28;20516;-80
2024/02/17 11:05:07;;;;;;;62.10;36.40;;;13.10;99.90;;;;;;5112618;28;20555;-78
2024/02/17 11:07:34;;;;;;;48.50;34.03;;;13.10;99.90;;;;;;5091684;28;20492;-78
2024/02/17 11:10:05;;;;;;;46.83;33.83;;;13.20;99.90;;;;;;5097880;28;20517;-80
2024/02/17 11:12:33;;;;;;;49.10;32.27;;;13.10;99.90;;;;;;5095934;28;20557;-80
2024/02/17 11:15:02;;;;;;;41.93;30.10;;;13.30;99.90;;;;;;5099499;28;20449;-79
2024/02/17 11:17:37;;;;;;;41.57;30.57;;;13.40;99.90;;;;;;5094618;28;20526;-79
2024/02/17 11:20:09;;;;;;;48.67;32.23;;;13.50;99.90;;;;;;5105202;28;20426;-80
2024/02/17 11:22:36;;;;;;;46.37;32.17;;;13.40;99.90;;;;;;5095505;28;20461;-81
2024/02/17 11:25:04;;;;;;;50.83;32.90;;;13.30;99.90;;;;;;5098639;28;20551;-78
2024/02/17 11:27:33;;;;;;;46.47;31.53;;;13.20;99.90;;;;;;5095304;28;20456;-79
2024/02/17 11:30:00;;;;;;;48.50;33.20;;;13.20;99.90;;;;;;5088370;28;20829;-82
2024/02/17 11:32:28;;;;;;;57.00;33.50;;;13.00;99.90;;;;;;5089553;28;20489;-78
2024/02/17 11:34:57;;;;;;;51.13;31.90;;;12.90;99.90;;;;;;5086947;28;20932;-79
2024/02/17 11:37:25;;;;;;;42.97;31.63;;;12.90;99.90;;;;;;5089353;28;20517;-77
2024/02/17 11:39:52;;;;;;;44.90;30.07;;;12.80;99.90;;;;;;5091734;28;20517;-78
2024/02/17 11:42:20;;;;;;;44.70;32.90;;;12.80;99.90;;;;;;5093779;28;20476;-81
2024/02/17 11:44:47;;;;;;;42.00;29.87;;;12.90;99.90;;;;;;5098022;28;20492;-82
2024/02/17 11:47:14;;;;;;;44.93;31.53;;;13.00;99.90;;;;;;5091275;28;20469;-79
2024/02/17 11:49:43;;;;;;;51.47;30.57;;;13.10;99.90;;;;;;5096317;28;20504;-80
2024/02/17 11:52:13;;;;;;;42.00;29.13;;;13.00;99.90;;;;;;5095960;28;20467;-80
2024/02/17 11:54:43;;;;;;;46.23;36.70;;;13.10;99.90;;;;;;5096651;28;20513;-79
2024/02/17 11:57:13;;;;;;;44.67;31.17;;;12.90;99.90;;;;;;5092840;28;20457;-78
2024/02/17 11:59:41;;;;;;;41.17;31.93;;;12.90;99.90;;;;;;5091690;28;20971;-79
2024/02/17 12:02:10;;;;;;;42.17;29.60;;;12.80;99.90;;;;;;5099616;28;20488;-79
2024/02/17 12:04:39;;;;;;;47.43;31.10;;;12.90;99.90;;;;;;5097772;28;20521;-81
2024/02/17 12:07:06;;;;;;;39.20;30.27;;;12.80;99.90;;;;;;5090036;28;20463;-81
2024/02/17 12:09:35;;;;;;;40.70;28.67;;;12.60;99.90;;;;;;5096606;28;20446;-80
2024/02/17 12:12:02;;;;;;;36.20;26.07;;;12.60;99.90;;;;;;5095557;28;20481;-82
2024/02/17 12:14:30;;;;;;;37.50;28.00;;;12.60;99.90;;;;;;5099004;28;20520;-79
2024/02/17 12:16:57;;;;;;;38.13;28.20;;;12.60;99.90;;;;;;5101767;28;20480;-80
2024/02/17 12:19:25;;;;;;;40.50;28.43;;;12.40;99.90;;;;;;5105603;28;20449;-80
2024/02/17 12:21:53;;;;;;;44.30;29.93;;;12.50;99.90;;;;;;5100387;28;20477;-77
2024/02/17 12:24:20;;;;;;;41.40;29.07;;;12.50;99.90;;;;;;5097528;28;20517;-81
2024/02/17 12:26:51;;;;;;;36.57;27.40;;;12.50;99.90;;;;;;5090568;28;20486;-80
2024/02/17 12:29:18;;;;;;;42.87;30.13;;;12.70;99.90;;;;;;5102061;28;20828;-81
2024/02/17 12:31:50;;;;;;;40.90;29.80;;;12.70;99.90;;;;;;5097933;28;20472;-80